Time;durP1;ratioP1;P1;durP2;ratioP2;P2;SDS_P1;SDS_P2;PMS_P1;PMS_P2;Temp;Humidity;BMP_temperature;BMP_pressure;BME280_temperature;BME280_humidity;BME280_pressure;Samples;Min_cycle;Max_cycle;Signal;HPM_P1;HPM_P2
2021/05/01 00:00:21;;;;;;;10.02;7.32;;;;;;;30.77;54.05;101070.00;5044197;28;69796;-30
2021/05/01 00:02:51;;;;;;;17.33;6.60;;;;;;;30.77;53.37;101078.94;5039076;28;65146;-29
2021/05/01 00:05:21;;;;;;;21.88;6.50;;;;;;;30.79;54.69;101092.28;5040712;28;70097;-29
2021/05/01 00:07:55;;;;;;;7.88;7.07;;;;;;;30.84;54.21;101087.06;5043850;28;66170;-30
2021/05/01 00:10:26;;;;;;;16.15;7.82;;;;;;;30.86;54.43;101091.22;5041015;28;70747;-30
2021/05/01 00:12:57;;;;;;;21.95;7.75;;;;;;;30.88;53.66;101096.44;5039331;28;67647;-30
2021/05/01 00:15:26;;;;;;;10.80;7.13;;;;;;;30.92;54.55;101090.38;5039674;28;69274;-30
2021/05/01 00:17:56;;;;;;;12.50;7.50;;;;;;;30.93;54.24;101104.75;5030584;28;65486;-29
2021/05/01 00:20:26;;;;;;;12.00;7.13;;;;;;;30.95;54.25;101105.34;5049795;28;70091;-29
2021/05/01 00:22:56;;;;;;;12.02;7.13;;;;;;;30.95;53.83;101116.19;5042593;28;65399;-29
2021/05/01 00:25:26;;;;;;;19.55;7.38;;;;;;;30.93;53.64;101112.88;5043891;28;70642;-29
2021/05/01 00:27:56;;;;;;;15.80;8.32;;;;;;;30.96;53.83;101123.28;5040330;28;66132;-30
2021/05/01 00:30:27;;;;;;;17.25;7.50;;;;;;;30.95;54.80;101132.44;5046999;28;70673;-29
2021/05/01 00:32:58;;;;;;;20.77;7.57;;;;;;;30.91;54.74;101120.38;5033968;28;66061;-29
2021/05/01 00:35:28;;;;;;;34.03;8.70;;;;;;;31.01;55.19;101130.75;5033529;28;70329;-30
2021/05/01 00:37:58;;;;;;;28.65;9.48;;;;;;;31.05;55.31;101138.25;5037950;28;64947;-30
2021/05/01 00:40:28;;;;;;;17.60;8.73;;;;;;;31.04;56.77;101141.19;5038373;28;69187;-30
2021/05/01 00:42:58;;;;;;;14.10;9.18;;;;;;;31.06;57.18;101139.88;5047582;28;65536;-30
2021/05/01 00:45:29;;;;;;;24.83;8.73;;;;;;;31.11;57.14;101150.91;5038242;28;70884;-30
2021/05/01 00:47:59;;;;;;;30.38;10.50;;;;;;;31.12;57.86;101144.47;5034511;28;66301;-30
2021/05/01 00:50:29;;;;;;;36.38;9.65;;;;;;;31.09;57.89;101122.38;5027757;28;69261;-30
2021/05/01 00:52:59;;;;;;;36.63;9.20;;;;;;;31.23;57.63;101150.25;5051613;28;65342;-31
2021/05/01 00:55:38;;;;;;;21.38;9.05;;;;;;;31.21;57.06;101146.94;5043700;28;69497;-30
2021/05/01 00:58:09;;;;;;;25.30;8.20;;;;;;;31.26;57.99;101144.38;5039723;28;66217;-31
2021/05/01 01:03:27;;;;;;;14.15;8.05;;;;;;;31.37;57.47;101157.28;5030537;28;66100;-31
2021/05/01 01:05:57;;;;;;;15.70;7.53;;;;;;;31.37;57.40;101162.69;5035100;28;70154;-30
2021/05/01 01:08:28;;;;;;;16.73;8.77;;;;;;;31.37;57.34;101163.56;5034534;28;66027;-31
2021/05/01 01:10:59;;;;;;;34.97;9.60;;;;;;;31.40;58.08;101167.72;5033736;28;69584;-31
2021/05/01 01:13:29;;;;;;;17.27;9.05;;;;;;;31.44;57.18;101168.94;5033964;28;66255;-31
2021/05/01 01:16:00;;;;;;;28.90;9.65;;;;;;;31.42;56.95;101160.19;5048977;28;70607;-31
2021/05/01 01:18:31;;;;;;;15.93;9.55;;;;;;;31.50;57.23;101178.91;5036437;28;66156;-29
2021/05/01 01:21:04;;;;;;;32.95;10.27;;;;;;;31.55;56.61;101183.69;5046260;28;69560;-31
2021/05/01 01:23:34;;;;;;;20.15;8.50;;;;;;;31.59;56.58;101188.47;5039209;28;66085;-31
2021/05/01 01:26:05;;;;;;;19.83;8.80;;;;;;;31.46;56.54;101166.00;5036530;28;69991;-30
2021/05/01 01:28:35;;;;;;;19.98;8.05;;;;;;;31.63;56.83;101174.47;5037685;28;65478;-31
2021/05/01 01:31:05;;;;;;;23.50;9.25;;;;;;;31.61;56.27;101174.66;5043159;28;68961;-31
2021/05/01 01:33:36;;;;;;;16.50;9.15;;;;;;;31.60;56.06;101160.28;5035761;28;66621;-31
2021/05/01 01:36:08;;;;;;;23.75;9.02;;;;;;;31.52;56.18;101149.69;5023308;28;70609;-31
2021/05/01 01:38:38;;;;;;;22.27;8.07;;;;;;;31.70;56.06;101167.09;5044549;28;65384;-31
2021/05/01 01:41:08;;;;;;;25.50;8.02;;;;;;;31.70;56.10;101172.53;5045355;28;69108;-31
2021/05/01 01:43:38;;;;;;;20.80;8.57;;;;;;;31.68;56.91;101161.91;5034773;28;65863;-31
2021/05/01 01:46:09;;;;;;;19.13;8.45;;;;;;;31.75;56.82;101159.13;5035761;28;70122;-31
2021/05/01 01:48:39;;;;;;;28.52;8.90;;;;;;;31.81;56.98;101171.81;5037052;28;66261;-31
2021/05/01 01:51:09;;;;;;;47.67;9.65;;;;;;;31.86;56.54;101165.75;5033152;28;69796;-31
2021/05/01 01:53:39;;;;;;;27.40;10.95;;;;;;;31.87;57.04;101168.22;5031880;28;66164;-30
2021/05/01 01:56:10;;;;;;;23.52;9.77;;;;;;;31.90;56.77;101167.81;5034192;28;69997;-30
2021/05/01 01:58:40;;;;;;;23.00;10.05;;;;;;;31.95;56.41;101169.88;5034471;28;67112;-31
2021/05/01 02:01:11;;;;;;;21.38;9.60;;;;;;;31.99;56.51;101166.50;5029971;28;70197;-31
2021/05/01 02:03:41;;;;;;;25.88;9.60;;;;;;;32.03;56.25;101162.28;5036204;28;66644;-30
2021/05/01 02:06:12;;;;;;;19.38;9.05;;;;;;;32.04;57.35;101168.56;5046825;28;69390;-29
2021/05/01 02:08:43;;;;;;;;;;;;;;;32.07;56.95;101167.25;5042297;28;66463;-30
2021/05/01 02:11:14;;;;;;;28.48;9.38;;;;;;;32.13;56.39;101166.41;5044105;28;69533;-30
2021/05/01 02:13:44;;;;;;;30.15;9.15;;;;;;;32.14;56.04;101159.91;5035870;28;65301;-30
2021/05/01 02:16:15;;;;;;;30.75;8.95;;;;;;;32.13;56.29;101156.38;5046154;28;69077;-32
2021/05/01 02:18:45;;;;;;;33.17;9.48;;;;;;;32.20;55.41;101142.72;5042719;28;66030;-32
2021/05/01 02:21:16;;;;;;;19.75;9.60;;;;;;;32.17;55.69;101146.72;5036654;28;69483;-32
2021/05/01 02:23:46;;;;;;;20.05;8.30;;;;;;;32.11;55.03;101144.06;5038076;28;65148;-31
2021/05/01 02:26:17;;;;;;;29.63;9.15;;;;;;;32.22;55.71;101148.75;5011295;28;68164;-32
2021/05/01 02:28:47;;;;;;;24.10;8.25;;;;;;;32.26;55.92;101155.41;5034465;28;66494;-31
2021/05/01 02:31:18;;;;;;;22.33;8.30;;;;;;;32.34;56.21;101157.81;5039734;28;70437;-30
2021/05/01 02:33:49;;;;;;;27.67;8.93;;;;;;;32.45;56.43;101154.38;5045029;28;67186;-29
2021/05/01 02:36:20;;;;;;;24.30;9.00;;;;;;;32.51;56.43;101154.56;5042401;28;70112;-31
2021/05/01 02:38:51;;;;;;;16.88;8.35;;;;;;;32.61;56.52;101149.44;5047016;28;66842;-31
2021/05/01 02:41:24;;;;;;;11.27;7.77;;;;;;;32.66;56.38;101157.75;5046997;28;68879;-31
2021/05/01 02:43:54;;;;;;;19.90;8.48;;;;;;;32.72;55.98;101149.53;5049314;28;66325;-30
2021/05/01 02:46:24;;;;;;;14.82;8.27;;;;;;;32.77;56.10;101146.13;5045000;28;70066;-30
2021/05/01 02:48:57;;;;;;;18.38;8.52;;;;;;;32.80;56.46;101148.38;5047719;28;65281;-31
2021/05/01 02:51:27;;;;;;;28.63;8.40;;;;;;;32.86;56.14;101139.31;5043719;28;70610;-30
2021/05/01 02:53:57;;;;;;;17.48;8.02;;;;;;;32.96;55.81;101143.38;5047736;28;65913;-30
2021/05/01 02:56:27;;;;;;;14.25;8.93;;;;;;;33.01;55.71;101138.13;5044547;28;69022;-30
2021/05/01 02:58:57;;;;;;;16.02;8.18;;;;;;;33.07;55.92;101134.47;5041030;28;65986;-31
2021/05/01 03:01:28;;;;;;;19.85;8.23;;;;;;;33.12;55.92;101131.91;5046144;28;69807;-31
2021/05/01 03:03:58;;;;;;;15.65;8.68;;;;;;;33.13;55.69;101122.72;5039413;28;66048;-30
2021/05/01 03:06:30;;;;;;;20.10;7.97;;;;;;;33.22;55.65;101126.75;5033720;28;69985;-31
2021/05/01 03:09:00;;;;;;;19.88;8.07;;;;;;;33.28;55.19;101114.97;5045164;28;65168;-30
2021/05/01 03:11:31;;;;;;;10.57;8.15;;;;;;;33.32;55.12;101115.31;5020610;28;68976;-30
2021/05/01 03:14:02;;;;;;;21.90;8.20;;;;;;;33.32;55.16;101110.72;5041647;28;65833;-30
2021/05/01 03:16:32;;;;;;;18.48;8.68;;;;;;;33.41;54.87;101107.69;5033523;28;70088;-30
2021/05/01 03:19:03;;;;;;;12.80;7.50;;;;;;;33.45;54.92;101098.00;5049033;28;65687;-31
2021/05/01 03:21:34;;;;;;;11.23;8.00;;;;;;;33.47;54.89;101101.31;5044043;28;69987;-31
2021/05/01 03:24:05;;;;;;;14.40;7.95;;;;;;;33.50;54.71;101084.53;5041441;28;65973;-30
2021/05/01 03:26:36;;;;;;;10.98;7.95;;;;;;;33.56;54.34;101094.50;5034528;28;69363;-31
2021/05/01 03:29:07;;;;;;;17.10;7.53;;;;;;;33.60;54.42;101090.25;5042124;28;65910;-31
2021/05/01 03:31:39;;;;;;;16.52;8.57;;;;;;;33.61;54.45;101089.19;5050195;28;69263;-31
2021/05/01 03:34:10;;;;;;;12.02;7.53;;;;;;;33.64;54.37;101077.84;5039140;28;65968;-31
2021/05/01 03:36:42;;;;;;;8.52;7.38;;;;;;;33.69;54.38;101072.53;5047422;28;69880;-31
2021/05/01 03:39:16;;;;;;;11.65;8.30;;;;;;;33.70;54.12;101074.16;5042453;28;66377;-31
2021/05/01 03:41:46;;;;;;;9.18;7.82;;;;;;;33.73;53.70;101067.44;5041619;28;69770;-32
2021/05/01 03:44:17;;;;;;;12.02;7.35;;;;;;;33.76;53.80;101065.06;5044991;28;65356;-35
2021/05/01 03:46:48;;;;;;;;;;;;;;;33.75;54.21;101065.31;5030818;28;69294;-30
2021/05/01 03:49:20;;;;;;;8.93;6.88;;;;;;;33.83;53.88;101056.81;5036470;28;65166;-30
2021/05/01 03:51:50;;;;;;;15.32;7.45;;;;;;;33.89;53.96;101060.47;5041492;28;69001;-35
2021/05/01 03:54:21;;;;;;;12.98;7.60;;;;;;;33.92;53.74;101062.72;5043189;28;66141;-30
2021/05/01 03:56:52;;;;;;;11.13;7.40;;;;;;;33.93;53.65;101057.00;5048504;28;69455;-31
2021/05/01 03:59:23;;;;;;;8.30;7.33;;;;;;;33.98;53.68;101053.59;5042038;28;67734;-30
2021/05/01 04:01:53;;;;;;;7.93;7.13;;;;;;;34.00;53.59;101056.91;5040546;28;69899;-31
2021/05/01 04:04:25;;;;;;;11.97;7.97;;;;;;;34.01;53.72;101055.84;5041390;28;66500;-33
2021/05/01 04:06:56;;;;;;;12.50;7.20;;;;;;;34.06;53.68;101049.72;5038392;28;70409;-31
2021/05/01 04:09:26;;;;;;;9.07;6.85;;;;;;;34.11;53.37;101045.22;5042794;28;65356;-30
2021/05/01 04:11:56;;;;;;;7.80;6.88;;;;;;;34.16;53.22;101033.63;5047022;28;69978;-31
2021/05/01 04:14:26;;;;;;;7.80;7.13;;;;;;;34.15;53.23;101034.66;5041985;28;66046;-32
2021/05/01 04:16:56;;;;;;;8.38;7.57;;;;;;;34.19;53.13;101028.53;5043442;28;69264;-30
2021/05/01 04:19:26;;;;;;;9.27;7.05;;;;;;;34.19;53.29;101033.97;5047927;28;66209;-30
2021/05/01 04:22:03;;;;;;;8.02;6.80;;;;;;;34.14;52.89;101006.63;5044024;28;69930;-31
2021/05/01 04:24:35;;;;;;;11.57;7.75;;;;;;;34.26;53.08;101029.19;5045194;28;65721;-31
2021/05/01 04:27:15;;;;;;;;;;;;;;;34.25;53.10;101022.09;5042822;28;70312;-31
2021/05/01 04:29:45;;;;;;;9.27;7.07;;;;;;;34.34;52.85;101029.91;5040181;28;66160;-30
2021/05/01 04:32:16;;;;;;;11.90;7.53;;;;;;;34.40;52.58;101023.50;5033881;28;71031;-30
2021/05/01 04:34:46;;;;;;;9.02;6.82;;;;;;;34.39;52.74;101014.50;5042326;28;65158;-31
2021/05/01 04:37:16;;;;;;;10.70;7.40;;;;;;;34.39;52.84;101010.94;5030059;28;69832;-31
2021/05/01 04:39:47;;;;;;;9.68;6.57;;;;;;;34.44;52.75;101013.78;5038850;28;65777;-31
2021/05/01 04:42:17;;;;;;;12.55;7.55;;;;;;;34.42;52.80;100999.56;5043195;28;70040;-30
2021/05/01 04:44:48;;;;;;;7.95;7.25;;;;;;;34.44;52.87;100992.00;5045125;28;65295;-30
2021/05/01 04:47:18;;;;;;;12.38;7.22;;;;;;;34.49;52.71;100989.34;5046217;28;69834;-31
2021/05/01 04:49:48;;;;;;;8.23;7.30;;;;;;;34.52;52.51;100978.00;5044919;28;65083;-32
2021/05/01 04:52:19;;;;;;;11.00;6.93;;;;;;;34.55;52.38;100988.41;5047923;28;69131;-31
2021/05/01 04:54:52;;;;;;;8.90;6.72;;;;;;;34.56;52.45;100973.72;5036181;28;66392;-31
2021/05/01 04:57:23;;;;;;;16.45;7.07;;;;;;;34.57;52.34;100980.00;5045265;28;69891;-31
2021/05/01 04:59:54;;;;;;;;;;;;;;;34.58;52.41;100970.78;5044089;28;65054;-31
2021/05/01 05:02:25;;;;;;;7.78;6.85;;;;;;;34.67;52.33;100975.56;5037871;28;70139;-32
2021/05/01 05:04:56;;;;;;;7.75;7.05;;;;;;;34.65;52.24;100966.81;5040365;28;64959;-32
2021/05/01 05:07:30;;;;;;;7.20;6.57;;;;;;;34.74;52.01;100969.13;5027519;28;70283;-31
2021/05/01 05:10:01;;;;;;;9.77;6.75;;;;;;;34.73;51.88;100962.88;5040379;28;66359;-32
2021/05/01 05:12:32;;;;;;;10.80;7.17;;;;;;;34.61;52.05;100927.53;5040787;28;71396;-31
2021/05/01 05:15:08;;;;;;;10.63;7.05;;;;;;;34.57;51.91;100917.34;5040639;28;64518;-31
2021/05/01 05:17:39;;;;;;;7.75;6.22;;;;;;;34.76;51.93;100934.31;5039906;28;69878;-32
2021/05/01 05:20:11;;;;;;;6.75;6.18;;;;;;;34.78;51.88;100940.34;5039406;28;66406;-32
2021/05/01 05:22:42;;;;;;;6.80;6.30;;;;;;;34.84;51.86;100944.81;5039004;28;71007;-32
2021/05/01 05:25:13;;;;;;;6.90;6.30;;;;;;;34.80;51.86;100935.44;5035610;28;65311;-32
2021/05/01 05:27:44;;;;;;;;;;;;;;;34.79;52.56;100928.38;5042165;28;70344;-31
2021/05/01 05:30:16;;;;;;;15.93;6.00;;;;;;;34.89;51.64;100920.38;5042862;28;65335;-34
2021/05/01 05:32:46;;;;;;;;;;;;;;;34.77;50.82;100914.16;5030886;28;69930;-31
2021/05/01 05:35:17;;;;;;;16.35;6.60;;;;;;;34.79;49.83;100912.00;5030293;28;65919;-31
2021/05/01 05:37:48;;;;;;;26.20;7.25;;;;;;;34.69;49.30;100902.59;5032779;28;69273;-31
2021/05/01 05:40:21;;;;;;;38.70;7.07;;;;;;;34.64;48.95;100910.69;5031676;28;65963;-31
2021/05/01 05:42:52;;;;;;;45.15;7.78;;;;;;;34.59;48.75;100902.41;5037648;28;70532;-37
2021/05/01 05:45:29;;;;;;;26.30;7.72;;;;;;;34.49;48.75;100894.00;5003735;28;66023;-31
2021/05/01 05:48:02;;;;;;;26.70;7.13;;;;;;;34.47;47.72;100888.81;5036466;28;70250;-31
2021/05/01 05:50:35;;;;;;;24.80;7.00;;;;;;;34.23;47.45;100896.28;5023626;28;66239;-32
2021/05/01 05:53:09;;;;;;;31.00;7.63;;;;;;;33.97;48.15;100894.09;5039351;28;70063;-32
2021/05/01 05:55:41;;;;;;;17.08;7.05;;;;;;;33.81;48.48;100874.72;5037427;28;66296;-32
2021/05/01 05:58:17;;;;;;;12.63;6.22;;;;;;;33.70;47.79;100864.69;5036852;28;70483;-31
2021/05/01 06:00:49;;;;;;;21.85;6.93;;;;;;;33.66;47.48;100860.00;5034752;28;66352;-31
2021/05/01 06:03:24;;;;;;;24.42;6.03;;;;;;;33.58;47.00;100836.72;5036204;28;70044;-31
2021/05/01 06:06:12;;;;;;;10.18;5.45;;;;;;;33.49;46.12;100838.94;5036167;28;66132;-31
2021/05/01 06:08:44;;;;;;;11.02;5.88;;;;;;;33.52;46.00;100832.19;5036137;28;70087;-31
2021/05/01 06:11:20;;;;;;;10.23;4.90;;;;;;;33.47;45.63;100830.19;5042635;28;66697;-30
2021/05/01 06:13:53;;;;;;;17.17;4.38;;;;;;;33.52;44.90;100843.09;5034696;28;70257;-32
2021/05/01 06:16:24;;;;;;;8.80;5.38;;;;;;;33.50;44.32;100828.88;5048880;28;66271;-32
2021/05/01 06:18:55;;;;;;;9.43;4.77;;;;;;;33.52;44.54;100826.75;5043504;28;69956;-31
2021/05/01 06:21:27;;;;;;;9.90;4.83;;;;;;;33.47;43.70;100819.31;5042293;28;66046;-31
2021/05/01 06:23:59;;;;;;;8.10;4.72;;;;;;;33.47;43.01;100807.63;5043709;28;70052;-30
2021/05/01 06:26:37;;;;;;;8.35;4.30;;;;;;;33.49;42.85;100800.03;5043539;28;66011;-31
2021/05/01 06:29:08;;;;;;;8.77;4.20;;;;;;;33.46;42.60;100800.50;5040957;28;69482;-33
2021/05/01 06:31:39;;;;;;;8.13;4.28;;;;;;;33.44;42.38;100791.78;5036379;28;65474;-30
2021/05/01 06:34:11;;;;;;;5.30;4.22;;;;;;;33.47;42.16;100783.13;5041664;28;70259;-30
2021/05/01 06:36:42;;;;;;;5.70;4.47;;;;;;;33.48;42.36;100784.78;5048261;28;66177;-31
2021/05/01 06:39:14;;;;;;;;;;;;;;;33.50;41.72;100785.38;5042332;28;69964;-30
2021/05/01 06:41:57;;;;;;;6.30;3.78;;;;;;;33.50;41.32;100769.88;5047653;28;66922;-33
2021/05/01 06:44:59;;;;;;;4.18;3.60;;;;;;;33.50;40.69;100763.63;5037965;28;69882;-31
2021/05/01 06:47:32;;;;;;;4.25;3.83;;;;;;;33.38;40.97;100737.28;5053939;28;65428;-31
2021/05/01 06:50:12;;;;;;;4.20;3.80;;;;;;;33.30;40.25;100743.09;5039681;28;69171;-31
2021/05/01 06:52:47;;;;;;;4.47;4.18;;;;;;;33.38;40.68;100740.00;5037321;28;66140;-31
2021/05/01 06:55:20;;;;;;;3.80;3.35;;;;;;;33.48;40.34;100761.13;5045099;28;69195;-31
2021/05/01 06:57:53;;;;;;;3.53;3.22;;;;;;;33.35;40.30;100724.19;5042175;28;65020;-32
2021/05/01 07:00:25;;;;;;;4.50;3.70;;;;;;;33.52;40.02;100743.31;5041912;28;70832;-31
2021/05/01 07:03:07;;;;;;;3.88;3.15;;;;;;;33.52;39.59;100734.31;5040843;28;65330;-31
2021/05/01 07:05:37;;;;;;;2.83;2.63;;;;;;;33.55;39.85;100728.41;5039032;28;68269;-32
2021/05/01 07:08:11;;;;;;;3.45;3.15;;;;;;;33.55;39.68;100722.97;5031711;28;65641;-32
2021/05/01 07:10:43;;;;;;;3.25;2.92;;;;;;;33.60;39.35;100725.78;5015352;28;69578;-30
2021/05/01 07:13:16;;;;;;;3.08;2.88;;;;;;;33.61;39.32;100727.44;5036907;28;67265;-31
2021/05/01 07:15:46;;;;;;;3.33;3.05;;;;;;;33.64;38.88;100716.06;5029834;28;69193;-31
2021/05/01 07:18:21;;;;;;;2.80;2.60;;;;;;;33.58;38.67;100720.56;5034083;28;67269;-31
2021/05/01 07:20:56;;;;;;;5.13;2.60;;;;;;;33.52;38.72;100690.78;5032389;28;69968;-31
2021/05/01 07:23:27;;;;;;;2.83;2.63;;;;;;;33.61;38.18;100711.09;5032590;28;65956;-31
2021/05/01 07:25:57;;;;;;;3.63;3.08;;;;;;;33.63;38.14;100708.97;5034299;28;69957;-32
2021/05/01 07:28:44;;;;;;;3.20;2.90;;;;;;;33.47;37.66;100694.22;5032926;28;67565;-30
2021/05/01 07:31:24;;;;;;;3.13;2.92;;;;;;;33.57;38.34;100718.09;5029100;28;70090;-32
2021/05/01 07:33:57;;;;;;;13.18;2.80;;;;;;;33.61;38.19;100718.44;5031254;28;65940;-30
2021/05/01 07:36:39;;;;;;;4.38;2.63;;;;;;;33.47;37.78;100701.56;5040802;28;69173;-31
2021/05/01 07:39:13;;;;;;;4.47;2.72;;;;;;;33.63;39.22;100719.84;5041262;28;65602;-31
2021/05/01 07:41:46;;;;;;;2.65;2.45;;;;;;;33.55;39.01;100691.16;5001214;28;69488;-32
2021/05/01 07:44:18;;;;;;;2.60;2.40;;;;;;;33.54;38.44;100685.94;5036877;28;66100;-33
2021/05/01 07:46:49;;;;;;;5.53;2.38;;;;;;;33.66;38.15;100691.34;5031410;28;69739;-32
2021/05/01 07:49:21;;;;;;;2.97;2.75;;;;;;;33.72;38.24;100701.25;5035367;28;65907;-30
2021/05/01 07:51:51;;;;;;;5.13;2.92;;;;;;;33.72;38.16;100696.63;5034402;28;70551;-33
2021/05/01 07:54:23;;;;;;;2.95;2.67;;;;;;;33.72;38.05;100691.19;5036638;28;66434;-35
2021/05/01 07:56:55;;;;;;;2.67;2.30;;;;;;;33.74;38.07;100689.06;5019462;28;70348;-32
2021/05/01 07:59:25;;;;;;;7.00;2.70;;;;;;;33.76;38.71;100689.63;5034509;28;65501;-32
2021/05/01 08:01:55;;;;;;;7.63;2.90;;;;;;;33.78;38.44;100679.31;5027456;28;69500;-32
2021/05/01 08:04:25;;;;;;;13.27;2.97;;;;;;;33.79;38.28;100675.56;5036511;28;66436;-32
2021/05/01 08:06:56;;;;;;;2.88;2.60;;;;;;;33.84;37.71;100671.25;5028850;28;69824;-32
2021/05/01 08:09:26;;;;;;;7.32;2.80;;;;;;;33.80;37.67;100666.31;5034681;28;65228;-32
2021/05/01 08:11:57;;;;;;;6.70;2.60;;;;;;;33.86;37.41;100680.00;5029977;28;70239;-33
2021/05/01 08:14:29;;;;;;;3.72;2.50;;;;;;;33.89;37.46;100671.34;4984356;28;66560;-34
2021/05/01 08:17:05;;;;;;;3.92;2.90;;;;;;;33.90;37.35;100679.25;5008334;28;70589;-36
2021/05/01 08:19:38;;;;;;;7.55;2.85;;;;;;;33.95;37.17;100678.53;5001049;28;66586;-32
2021/05/01 08:22:08;;;;;;;5.95;2.90;;;;;;;33.96;37.24;100674.72;5028484;28;70245;-32
2021/05/01 08:24:38;;;;;;;7.57;3.00;;;;;;;33.98;37.02;100672.59;5027990;28;65739;-30
2021/05/01 08:27:08;;;;;;;9.07;2.55;;;;;;;33.92;37.17;100668.94;5030427;28;69930;-31
2021/05/01 08:29:39;;;;;;;4.85;2.55;;;;;;;33.97;37.06;100674.47;5027775;28;65887;-31
2021/05/01 08:32:10;;;;;;;9.95;2.45;;;;;;;33.92;37.39;100651.81;5036288;28;69496;-31
2021/05/01 08:34:45;;;;;;;14.30;3.45;;;;;;;33.93;38.86;100658.88;5027901;28;66057;-31
2021/05/01 08:37:15;;;;;;;24.52;3.60;;;;;;;34.05;40.71;100665.13;5035322;28;71402;-31
2021/05/01 08:39:45;;;;;;;32.17;5.05;;;;;;;34.13;41.59;100659.28;5042442;28;65449;-32
2021/05/01 08:42:17;;;;;;;31.10;4.68;;;;;;;34.20;41.85;100642.75;5044184;28;70410;-30
2021/05/01 08:44:46;;;;;;;;;;;;;;;34.40;42.40;100661.28;5036978;28;66568;-30
2021/05/01 08:47:17;;;;;;;26.90;4.53;;;;;;;34.52;43.20;100661.19;5037972;28;70322;-32
2021/05/01 08:49:47;;;;;;;56.20;5.45;;;;;;;34.63;44.78;100658.41;5040110;28;66346;-32
2021/05/01 08:52:19;;;;;;;14.05;4.93;;;;;;;34.78;45.71;100656.97;5042087;28;69848;-32
2021/05/01 08:54:49;;;;;;;46.92;5.10;;;;;;;34.89;46.06;100661.47;5041455;28;65995;-32
2021/05/01 08:57:32;;;;;;;13.75;4.60;;;;;;;34.85;47.76;100657.59;5030961;28;69844;-31
2021/05/01 09:00:03;;;;;;;21.00;4.78;;;;;;;35.01;46.49;100655.88;5031720;28;65172;-32
2021/05/01 09:02:33;;;;;;;18.25;4.10;;;;;;;35.04;46.58;100648.00;5031203;28;70446;-31
2021/05/01 09:05:05;;;;;;;26.10;6.13;;;;;;;35.13;46.73;100657.44;5032233;28;67302;-30
2021/05/01 09:07:38;;;;;;;31.00;5.53;;;;;;;35.17;46.87;100662.38;5045477;28;70287;-32
2021/05/01 09:10:10;;;;;;;18.08;4.35;;;;;;;35.21;46.53;100663.50;5037197;28;65322;-32
2021/05/01 09:12:46;;;;;;;28.42;5.03;;;;;;;35.19;47.21;100654.75;5039169;28;69073;-32
2021/05/01 09:15:25;;;;;;;14.68;4.85;;;;;;;35.20;47.02;100651.78;5022700;28;66053;-32
2021/05/01 09:18:06;;;;;;;23.30;4.78;;;;;;;35.25;47.06;100654.56;5045824;28;69815;-31
2021/05/01 09:20:36;;;;;;;23.63;4.95;;;;;;;35.27;47.36;100657.03;5039608;28;66612;-33
2021/05/01 09:23:13;;;;;;;13.68;4.15;;;;;;;35.30;47.32;100656.50;5036938;28;69776;-33
2021/05/01 09:25:59;;;;;;;17.33;4.65;;;;;;;35.28;47.40;100664.97;5046183;28;65337;-33
2021/05/01 09:28:41;;;;;;;14.27;4.18;;;;;;;35.31;47.72;100666.34;5045271;28;70178;-35
2021/05/01 09:31:18;;;;;;;33.58;4.90;;;;;;;35.11;47.03;100648.69;5042653;28;66334;-33
2021/05/01 09:33:53;;;;;;;16.25;4.07;;;;;;;35.29;46.49;100682.97;5047953;28;70520;-34
2021/05/01 09:36:26;;;;;;;16.98;4.55;;;;;;;35.31;46.68;100685.44;5044579;28;66095;-34
2021/05/01 09:39:00;;;;;;;51.67;5.82;;;;;;;35.28;45.82;100702.31;5047859;28;69779;-34
2021/05/01 09:41:44;;;;;;;54.10;5.53;;;;;;;35.26;46.23;100696.28;5041315;28;66223;-35
2021/05/01 09:44:18;;;;;;;72.07;6.18;;;;;;;35.27;45.75;100673.38;5041326;28;69741;-34
2021/05/01 09:46:53;;;;;;;53.88;5.43;;;;;;;35.52;45.71;100689.19;5043815;28;64625;-33
2021/05/01 09:49:26;;;;;;;49.38;5.50;;;;;;;35.66;44.96;100708.75;5047965;28;70140;-33
2021/05/01 09:52:01;;;;;;;28.10;4.88;;;;;;;35.70;45.17;100718.09;5042403;28;65400;-33
2021/05/01 09:54:38;;;;;;;39.13;5.35;;;;;;;35.72;44.18;100724.13;5043721;28;69403;-33
2021/05/01 09:57:20;;;;;;;29.42;5.00;;;;;;;35.64;43.64;100706.28;5037254;28;66043;-33
2021/05/01 09:59:53;;;;;;;22.25;4.82;;;;;;;35.79;43.46;100733.72;5047144;28;69982;-33
2021/05/01 10:02:33;;;;;;;41.50;5.38;;;;;;;35.68;42.90;100712.06;5022094;28;66380;-34
2021/05/01 10:05:05;;;;;;;10.23;4.65;;;;;;;35.86;43.10;100728.06;5040830;28;69251;-34
2021/05/01 10:07:39;;;;;;;47.53;5.28;;;;;;;35.85;42.92;100718.22;5042614;28;66397;-34
2021/05/01 10:10:10;;;;;;;34.58;5.63;;;;;;;35.87;42.61;100729.72;5036751;28;70238;-34
2021/05/01 10:12:43;;;;;;;19.73;4.68;;;;;;;35.84;42.48;100737.59;5043045;28;64451;-34
2021/05/01 10:15:18;;;;;;;25.88;3.70;;;;;;;35.69;42.00;100713.69;5034496;28;69352;-34
2021/05/01 10:17:50;;;;;;;16.60;4.53;;;;;;;35.80;42.81;100720.88;5036181;28;66268;-34
2021/05/01 10:20:20;;;;;;;23.20;4.05;;;;;;;35.84;42.25;100730.22;5047620;28;69644;-34
2021/05/01 10:22:51;;;;;;;22.60;4.60;;;;;;;35.86;42.55;100733.53;5036189;28;65229;-34
2021/05/01 10:25:28;;;;;;;15.23;3.63;;;;;;;35.56;43.13;100723.94;5032262;28;69348;-35
2021/05/01 10:30:44;;;;;;;18.60;4.50;;;;;;;35.27;45.13;100736.09;5039300;28;69873;-32
2021/05/01 10:33:24;;;;;;;12.93;5.00;;;;;;;35.10;46.27;100723.38;5037509;28;65415;-32
2021/05/01 10:36:18;;;;;;;24.80;4.90;;;;;;;35.11;46.51;100719.56;5037753;28;69045;-33
2021/05/01 10:39:06;;;;;;;24.63;4.93;;;;;;;34.97;46.52;100718.25;5037111;28;65453;-32
2021/05/01 10:41:37;;;;;;;28.25;5.25;;;;;;;34.95;46.24;100703.25;5035657;28;69354;-33
2021/05/01 10:44:18;;;;;;;20.80;4.22;;;;;;;34.94;47.28;100716.03;5034990;28;65408;-33
2021/05/01 10:46:48;;;;;;;34.83;4.85;;;;;;;34.93;47.27;100712.47;5038129;28;69141;-33
2021/05/01 10:49:18;;;;;;;71.70;6.05;;;;;;;34.86;47.99;100709.13;5032629;28;65037;-33
2021/05/01 10:51:51;;;;;;;34.15;4.90;;;;;;;34.91;48.24;100724.72;5036483;28;69263;-32
2021/05/01 10:54:26;;;;;;;14.18;4.97;;;;;;;34.93;48.53;100738.91;5033484;28;66473;-31
2021/05/01 10:56:57;;;;;;;27.60;4.15;;;;;;;34.89;48.32;100754.94;5034743;28;69213;-33
2021/05/01 10:59:30;;;;;;;23.70;4.53;;;;;;;34.90;48.73;100762.03;5036604;28;66437;-33
2021/05/01 11:02:01;;;;;;;14.45;4.82;;;;;;;35.00;48.37;100766.00;5034872;28;69362;-33
2021/05/01 11:04:32;;;;;;;16.33;4.63;;;;;;;35.10;48.11;100745.19;5043642;28;65552;-34
2021/05/01 11:07:13;;;;;;;26.52;5.10;;;;;;;35.22;48.16;100752.41;5038464;28;69870;-33
2021/05/01 11:09:50;;;;;;;17.35;4.93;;;;;;;35.27;47.93;100757.91;5044309;28;65595;-32
2021/05/01 11:12:23;;;;;;;18.05;4.10;;;;;;;35.33;48.04;100746.00;5041067;28;69945;-33
2021/05/01 11:15:01;;;;;;;14.88;4.22;;;;;;;35.21;48.28;100727.03;5045876;28;65972;-33
2021/05/01 11:17:32;;;;;;;10.88;3.80;;;;;;;35.38;47.59;100759.69;5044576;28;70025;-33
2021/05/01 11:20:07;;;;;;;18.98;4.60;;;;;;;35.36;47.72;100770.06;5045921;28;65991;-33
2021/05/01 11:22:39;;;;;;;12.13;4.53;;;;;;;35.35;48.14;100779.28;5044691;28;69816;-33
2021/05/01 11:25:15;;;;;;;8.25;4.10;;;;;;;35.08;47.82;100747.34;5017445;28;66213;-32
2021/05/01 11:27:47;;;;;;;17.73;4.43;;;;;;;35.36;47.72;100797.31;5042291;28;69888;-32
2021/05/01 11:30:27;;;;;;;7.35;3.95;;;;;;;35.34;47.84;100804.94;5045814;28;66266;-32
2021/05/01 11:33:03;;;;;;;7.18;3.80;;;;;;;35.23;48.29;100797.69;5039232;28;69406;-32
2021/05/01 11:35:34;;;;;;;11.27;4.43;;;;;;;35.30;48.25;100806.50;5040326;28;66266;-33
2021/05/01 11:38:09;;;;;;;8.77;3.90;;;;;;;35.29;48.26;100807.59;5044952;28;69264;-33
2021/05/01 11:40:47;;;;;;;9.48;4.05;;;;;;;35.25;48.31;100811.91;5031602;28;65551;-34
2021/05/01 11:43:18;;;;;;;9.80;4.18;;;;;;;35.30;48.20;100817.41;5038095;28;70399;-32
2021/05/01 11:46:01;;;;;;;9.48;3.85;;;;;;;35.25;47.93;100828.25;5044005;28;66241;-32
2021/05/01 11:48:36;;;;;;;9.57;3.70;;;;;;;35.13;48.14;100815.56;5046446;28;70159;-32
2021/05/01 11:51:10;;;;;;;9.10;3.63;;;;;;;35.23;48.28;100846.78;5038806;28;65291;-32